Time;durP1;ratioP1;P1;durP2;ratioP2;P2;SDS_P1;SDS_P2;PMS_P1;PMS_P2;Temp;Humidity;BMP_temperature;BMP_pressure;BME280_temperature;BME280_humidity;BME280_pressure;Samples;Min_cycle;Max_cycle;Signal;HPM_P1;HPM_P2
2022/05/01 00:02:14;;;;;;;1999.90;999.90;;;12.40;99.90;;;;;;4879473;29;20108;-76
2022/05/01 00:04:40;;;;;;;1999.90;999.90;;;12.40;99.90;;;;;;4885646;29;20028;-76
2022/05/01 00:07:06;;;;;;;1999.90;999.90;;;12.30;99.90;;;;;;4882913;29;20037;-76
2022/05/01 00:09:33;;;;;;;1999.90;999.90;;;12.30;99.90;;;;;;4883381;29;20027;-77
2022/05/01 00:11:59;;;;;;;1999.90;999.90;;;12.30;99.90;;;;;;4883020;29;20449;-77
2022/05/01 00:14:25;;;;;;;1999.90;999.90;;;12.20;99.90;;;;;;4895749;29;20029;-77
2022/05/01 00:16:51;;;;;;;1999.90;999.90;;;12.10;99.90;;;;;;4901686;29;20040;-77
2022/05/01 00:19:17;;;;;;;1999.90;999.90;;;12.20;99.90;;;;;;4901081;29;20100;-77
2022/05/01 00:21:42;;;;;;;1999.90;999.90;;;12.10;99.90;;;;;;4884691;29;20503;-77
2022/05/01 00:24:08;;;;;;;1999.90;999.90;;;12.00;99.90;;;;;;4907194;29;20037;-78
2022/05/01 00:26:34;;;;;;;1999.90;999.90;;;12.00;99.90;;;;;;4901346;29;20033;-77
2022/05/01 00:29:05;;;;;;;1999.90;999.90;;;11.90;99.90;;;;;;4901283;29;20024;-77
2022/05/01 00:31:31;;;;;;;1999.90;999.90;;;11.90;99.90;;;;;;4884561;29;20039;-77
2022/05/01 00:36:40;;;;;;;1999.90;999.90;;;11.70;99.90;;;;;;4901711;29;20099;-77
2022/05/01 00:39:08;;;;;;;1999.90;999.90;;;11.60;99.90;;;;;;4916597;29;20024;-77
2022/05/01 00:41:35;;;;;;;1999.90;999.90;;;11.60;99.90;;;;;;4919837;29;20056;-77
2022/05/01 00:44:08;;;;;;;1999.90;999.90;;;11.60;99.90;;;;;;4920065;29;20043;-77
2022/05/01 00:46:36;;;;;;;1999.90;999.90;;;11.50;99.90;;;;;;4903127;29;20411;-77
2022/05/01 00:49:04;;;;;;;1999.90;999.90;;;11.40;99.90;;;;;;4919919;29;20028;-77
2022/05/01 00:51:46;;;;;;;1999.90;999.90;;;11.40;99.90;;;;;;4920286;29;20368;-78
2022/05/01 00:54:12;;;;;;;1999.90;999.90;;;11.30;99.90;;;;;;4912437;29;20025;-77
2022/05/01 00:56:43;;;;;;;1999.90;999.90;;;11.30;99.90;;;;;;4882445;29;20029;-77
2022/05/01 00:59:10;;;;;;;1999.90;999.90;;;11.20;99.90;;;;;;4881982;29;20033;-77
2022/05/01 01:01:37;;;;;;;1999.90;999.90;;;11.10;99.90;;;;;;4880378;29;20033;-77
2022/05/01 01:04:03;;;;;;;1999.90;999.90;;;11.10;99.90;;;;;;4882084;29;20397;-77
2022/05/01 01:06:31;;;;;;;1999.90;999.90;;;11.00;99.90;;;;;;4881909;29;20045;-77
2022/05/01 01:08:58;;;;;;;1999.90;999.90;;;11.00;99.90;;;;;;4882119;29;20049;-77
2022/05/01 01:11:24;;;;;;;1999.90;999.90;;;10.90;99.90;;;;;;4881811;29;20021;-77
2022/05/01 01:13:50;;;;;;;1999.90;999.90;;;10.90;99.90;;;;;;4881529;29;20056;-77
2022/05/01 01:16:16;;;;;;;1999.90;999.90;;;10.80;99.90;;;;;;4882109;29;20382;-77
2022/05/01 01:18:41;;;;;;;1999.90;999.90;;;10.80;99.90;;;;;;4881776;29;20036;-77
2022/05/01 01:21:11;;;;;;;1999.90;999.90;;;10.70;99.90;;;;;;4881484;29;20039;-77
2022/05/01 01:23:41;;;;;;;1999.90;999.90;;;10.70;99.90;;;;;;4880441;29;20033;-77
2022/05/01 01:26:07;;;;;;;1999.90;999.90;;;10.60;99.90;;;;;;4880306;29;20036;-77
2022/05/01 01:28:39;;;;;;;1999.90;999.90;;;10.50;99.90;;;;;;4881987;29;20601;-77
2022/05/01 01:33:53;;;;;;;1999.90;999.90;;;10.40;99.90;;;;;;4882306;29;20512;-77
2022/05/01 01:36:24;;;;;;;1999.90;999.90;;;10.40;99.90;;;;;;4884147;29;20052;-77
2022/05/01 01:38:50;;;;;;;1999.90;999.90;;;10.40;99.90;;;;;;4919681;29;20055;-77
2022/05/01 01:41:22;;;;;;;1999.90;999.90;;;10.30;99.90;;;;;;4901904;29;20048;-78
2022/05/01 01:43:49;;;;;;;1999.90;999.90;;;10.30;99.90;;;;;;4918980;29;20056;-78
2022/05/01 01:46:15;;;;;;;1999.90;999.90;;;10.20;99.90;;;;;;4919022;29;20107;-77
2022/05/01 01:48:41;;;;;;;1999.90;999.90;;;10.20;99.90;;;;;;4918301;29;20028;-77
2022/05/01 01:51:06;;;;;;;1999.90;999.90;;;10.10;99.90;;;;;;4919177;29;20024;-77
2022/05/01 01:53:34;;;;;;;1999.90;999.90;;;10.10;99.90;;;;;;4919082;29;20579;-77
2022/05/01 01:56:00;;;;;;;1999.90;999.90;;;10.00;99.90;;;;;;4883520;29;20081;-77
2022/05/01 01:58:27;;;;;;;1999.90;999.90;;;10.00;99.90;;;;;;4879771;29;20131;-77
2022/05/01 02:00:53;;;;;;;1999.90;999.90;;;10.00;99.90;;;;;;4881134;29;20029;-77
2022/05/01 02:03:19;;;;;;;1999.90;999.90;;;9.90;99.90;;;;;;4882473;29;20033;-77
2022/05/01 02:05:46;;;;;;;1999.90;999.90;;;9.90;99.90;;;;;;4880722;29;20054;-77
2022/05/01 02:08:13;;;;;;;1999.90;999.90;;;9.90;99.90;;;;;;4880478;29;20117;-77
2022/05/01 02:10:39;;;;;;;1999.90;999.90;;;9.80;99.90;;;;;;4879332;29;20037;-77
2022/05/01 02:13:05;;;;;;;1999.90;999.90;;;9.80;99.90;;;;;;4880940;29;20036;-77
2022/05/01 02:15:32;;;;;;;1999.90;999.90;;;9.90;99.90;;;;;;4880712;29;20492;-77
2022/05/01 02:17:58;;;;;;;1999.90;999.90;;;9.90;99.90;;;;;;4880705;29;20029;-77
2022/05/01 02:20:28;;;;;;;1999.90;999.90;;;9.90;99.90;;;;;;4879268;29;20029;-77
2022/05/01 02:22:54;;;;;;;1999.90;999.90;;;9.90;99.90;;;;;;4884333;29;20040;-77
2022/05/01 02:25:23;;;;;;;1999.90;999.90;;;9.80;99.90;;;;;;4879904;29;20029;-77
2022/05/01 02:27:49;;;;;;;1999.90;999.90;;;9.80;99.90;;;;;;4880713;29;20036;-77
2022/05/01 02:30:16;;;;;;;1999.90;999.90;;;9.80;99.90;;;;;;4879186;29;20548;-77
2022/05/01 02:32:42;;;;;;;1999.90;999.90;;;9.80;99.90;;;;;;4879675;29;20041;-77
2022/05/01 02:35:10;;;;;;;1999.90;999.90;;;9.90;99.90;;;;;;4880291;29;20032;-77
2022/05/01 02:37:35;;;;;;;1999.90;999.90;;;9.80;99.90;;;;;;4888718;29;20024;-77
2022/05/01 02:40:02;;;;;;;1999.90;999.90;;;9.80;99.90;;;;;;4921719;29;20024;-76
2022/05/01 02:42:28;;;;;;;1999.90;999.90;;;9.70;99.90;;;;;;4917851;29;20044;-77
2022/05/01 02:44:55;;;;;;;1999.90;999.90;;;9.80;99.90;;;;;;4917754;29;20048;-77
2022/05/01 02:47:21;;;;;;;1999.90;999.90;;;9.80;99.90;;;;;;4918065;29;20036;-77
2022/05/01 02:49:50;;;;;;;1999.90;999.90;;;9.70;99.90;;;;;;4917920;29;20066;-77
2022/05/01 02:52:16;;;;;;;1999.90;999.90;;;9.70;99.90;;;;;;4917668;29;20447;-77
2022/05/01 02:54:41;;;;;;;1999.90;999.90;;;9.70;99.90;;;;;;4902954;29;20022;-77
2022/05/01 02:57:10;;;;;;;1999.90;999.90;;;9.80;99.90;;;;;;4887857;29;20033;-77
2022/05/01 02:59:36;;;;;;;1999.90;999.90;;;9.80;99.90;;;;;;4879645;29;20033;-77
2022/05/01 03:02:01;;;;;;;1999.90;999.90;;;9.80;99.90;;;;;;4879817;29;20033;-77
2022/05/01 03:04:27;;;;;;;1999.90;999.90;;;9.90;99.90;;;;;;4879921;29;20032;-77
2022/05/01 03:06:53;;;;;;;1999.90;999.90;;;10.00;99.90;;;;;;4879951;29;20082;-77
2022/05/01 03:09:18;;;;;;;1999.90;999.90;;;10.00;99.90;;;;;;4880043;29;20021;-77
2022/05/01 03:11:44;;;;;;;1999.90;999.90;;;10.00;99.90;;;;;;4879562;29;20037;-77
2022/05/01 03:14:09;;;;;;;1999.90;999.90;;;10.00;99.90;;;;;;4879674;29;20029;-77
2022/05/01 03:16:36;;;;;;;1999.90;999.90;;;10.00;99.90;;;;;;4879732;29;20040;-77
2022/05/01 03:24:30;;;;;;;1999.90;999.90;;;10.00;99.90;;;;;;4879643;29;20040;-77
2022/05/01 03:26:56;;;;;;;1999.90;999.90;;;10.00;99.90;;;;;;4879385;29;20033;-77
2022/05/01 03:29:21;;;;;;;1999.90;999.90;;;10.00;99.90;;;;;;4879429;29;20033;-77
2022/05/01 03:31:48;;;;;;;1999.90;999.90;;;10.00;99.90;;;;;;4879545;29;20026;-77
2022/05/01 03:34:14;;;;;;;1999.90;999.90;;;10.00;99.90;;;;;;4878806;29;20552;-77
2022/05/01 03:36:40;;;;;;;1999.90;999.90;;;10.00;99.90;;;;;;4879135;29;20036;-77
2022/05/01 03:39:06;;;;;;;1999.90;999.90;;;9.90;99.90;;;;;;4911574;29;20040;-77
2022/05/01 03:41:32;;;;;;;1999.90;999.90;;;9.90;99.90;;;;;;4919022;29;20527;-77
2022/05/01 03:43:58;;;;;;;1999.90;999.90;;;10.00;99.90;;;;;;4919052;29;20510;-77
2022/05/01 03:46:24;;;;;;;1999.90;999.90;;;10.00;99.90;;;;;;4917025;29;20024;-77
2022/05/01 03:48:50;;;;;;;1999.90;999.90;;;10.00;99.90;;;;;;4899825;29;20035;-77
2022/05/01 03:51:16;;;;;;;1999.90;999.90;;;10.00;99.90;;;;;;4916913;29;20103;-77
2022/05/01 03:53:44;;;;;;;1999.90;999.90;;;10.10;99.90;;;;;;4917109;29;20479;-77
2022/05/01 03:56:10;;;;;;;1999.90;999.90;;;10.10;99.90;;;;;;4879216;29;20028;-77
2022/05/01 03:58:36;;;;;;;1999.90;999.90;;;10.20;99.90;;;;;;4879199;29;20033;-77
2022/05/01 04:01:02;;;;;;;1999.90;999.90;;;10.10;99.90;;;;;;4888611;29;20511;-76
2022/05/01 04:03:28;;;;;;;1999.90;999.90;;;10.10;99.90;;;;;;4878665;29;20477;-77
2022/05/01 04:05:54;;;;;;;1999.90;999.90;;;10.20;99.90;;;;;;4878942;29;20032;-77
2022/05/01 04:08:19;;;;;;;1999.90;999.90;;;10.20;99.90;;;;;;4879028;29;20485;-77
2022/05/01 04:10:46;;;;;;;1999.90;999.90;;;10.20;99.90;;;;;;4878840;29;20108;-77
2022/05/01 04:13:13;;;;;;;1999.90;999.90;;;10.30;99.90;;;;;;4878783;29;20029;-77
2022/05/01 04:15:39;;;;;;;1999.90;999.90;;;10.20;99.90;;;;;;4879259;29;20104;-77
2022/05/01 04:18:06;;;;;;;1999.90;999.90;;;10.20;99.90;;;;;;4882497;29;20100;-77
2022/05/01 04:20:32;;;;;;;1999.90;999.90;;;10.20;99.90;;;;;;4878869;29;20036;-77
2022/05/01 04:22:59;;;;;;;1999.90;999.90;;;10.20;99.90;;;;;;4879161;29;20140;-77
2022/05/01 04:25:29;;;;;;;1999.90;999.90;;;10.20;99.90;;;;;;4878976;29;20057;-77
2022/05/01 04:28:07;;;;;;;1999.90;999.90;;;10.20;99.90;;;;;;4878993;29;20021;-77
2022/05/01 04:30:33;;;;;;;1999.90;999.90;;;10.20;99.90;;;;;;4878944;29;20021;-77
2022/05/01 04:33:02;;;;;;;1999.90;999.90;;;10.20;99.90;;;;;;4879082;29;20385;-77
2022/05/01 04:35:37;;;;;;;1999.90;999.90;;;10.20;99.90;;;;;;4881324;29;20025;-76
2022/05/01 04:38:23;;;;;;;1999.90;999.90;;;10.20;99.90;;;;;;4894446;29;20031;-76
2022/05/01 04:40:58;;;;;;;1999.90;999.90;;;10.20;99.90;;;;;;4916243;29;20059;-77
2022/05/01 04:43:25;;;;;;;1999.90;999.90;;;10.20;99.90;;;;;;4915987;29;20083;-77
2022/05/01 04:45:56;;;;;;;1999.90;999.90;;;10.20;99.90;;;;;;4916515;29;20404;-77
2022/05/01 04:48:24;;;;;;;1999.90;999.90;;;10.20;99.90;;;;;;4917369;29;20016;-77
2022/05/01 04:50:51;;;;;;;1999.90;999.90;;;10.30;99.90;;;;;;4920278;29;20032;-77
2022/05/01 04:53:18;;;;;;;1999.90;999.90;;;10.20;99.90;;;;;;4905592;29;20025;-77
2022/05/01 04:55:46;;;;;;;1999.90;999.90;;;10.20;99.90;;;;;;4888914;29;20033;-77
2022/05/01 04:58:16;;;;;;;1999.90;999.90;;;10.20;99.90;;;;;;4882362;29;20035;-77
2022/05/01 05:00:43;;;;;;;1999.90;999.90;;;10.20;99.90;;;;;;4881697;29;20171;-77
2022/05/01 05:03:09;;;;;;;1999.90;999.90;;;10.20;99.90;;;;;;4882120;29;20029;-77
2022/05/01 05:05:34;;;;;;;1999.90;999.90;;;10.20;99.90;;;;;;4881608;29;20068;-77
2022/05/01 05:09:53;;;;;;;1999.90;999.90;;;10.20;99.90;;;;;;4882131;29;20405;-77
2022/05/01 05:10:47;;;;;;;1999.90;999.90;;;10.20;99.90;;;;;;4885231;29;20040;-76
2022/05/01 05:13:21;;;;;;;1999.90;999.90;;;10.20;99.90;;;;;;4882130;29;20029;-77
2022/05/01 05:15:47;;;;;;;1999.90;999.90;;;10.30;99.90;;;;;;4881851;29;20017;-77
2022/05/01 05:18:13;;;;;;;1999.90;999.90;;;10.30;99.90;;;;;;4881361;29;20032;-77
2022/05/01 05:20:39;;;;;;;1999.90;999.90;;;10.30;99.90;;;;;;4881695;29;20057;-77
2022/05/01 05:23:05;;;;;;;1999.90;999.90;;;10.30;99.90;;;;;;4881966;29;20536;-77
2022/05/01 05:25:31;;;;;;;1999.90;999.90;;;10.40;99.90;;;;;;4886323;29;20493;-77
2022/05/01 05:27:56;;;;;;;1999.90;999.90;;;10.30;99.90;;;;;;4882049;29;20481;-77
2022/05/01 05:30:22;;;;;;;1999.90;999.90;;;10.40;99.90;;;;;;4881493;29;20397;-77
2022/05/01 05:32:48;;;;;;;1999.90;999.90;;;10.30;99.90;;;;;;4881725;29;20037;-77
2022/05/01 05:35:14;;;;;;;1999.90;999.90;;;10.40;99.90;;;;;;4882760;29;20029;-77
2022/05/01 05:37:39;;;;;;;1999.90;999.90;;;10.40;99.90;;;;;;4904949;29;20029;-77
2022/05/01 05:40:06;;;;;;;1999.90;999.90;;;10.50;99.90;;;;;;4919227;29;20032;-77
2022/05/01 05:42:32;;;;;;;1999.90;999.90;;;10.50;99.90;;;;;;4921959;29;20056;-77
2022/05/01 05:44:59;;;;;;;1999.90;999.90;;;10.50;99.90;;;;;;4919109;29;20040;-77
2022/05/01 05:47:24;;;;;;;1999.90;999.90;;;10.60;99.90;;;;;;4901830;29;20060;-77
2022/05/01 05:49:50;;;;;;;1999.90;999.90;;;10.60;99.90;;;;;;4918692;29;20111;-77
2022/05/01 05:52:16;;;;;;;1999.90;999.90;;;10.70;99.90;;;;;;4919137;29;20432;-77
2022/05/01 05:54:41;;;;;;;1999.90;999.90;;;10.70;99.90;;;;;;4903666;29;20108;-77
2022/05/01 05:57:07;;;;;;;1999.90;999.90;;;10.70;99.90;;;;;;4881147;29;20043;-77
2022/05/01 05:59:33;;;;;;;1999.90;999.90;;;10.80;99.90;;;;;;4883869;29;20518;-77
2022/05/01 06:02:03;;;;;;;1999.90;999.90;;;10.80;99.90;;;;;;4880910;29;20104;-77
2022/05/01 06:04:29;;;;;;;1999.90;999.90;;;10.90;99.90;;;;;;4880295;29;20079;-77
2022/05/01 06:06:55;;;;;;;1999.90;999.90;;;10.90;99.90;;;;;;4879800;29;20033;-77
2022/05/01 06:09:20;;;;;;;1999.90;999.90;;;11.00;99.90;;;;;;4881448;29;20040;-77
2022/05/01 06:11:46;;;;;;;1999.90;999.90;;;11.10;99.90;;;;;;4880870;29;20029;-77
2022/05/01 06:14:11;;;;;;;1999.90;999.90;;;11.20;99.90;;;;;;4880675;29;20081;-77
2022/05/01 06:16:38;;;;;;;1999.90;999.90;;;11.20;99.90;;;;;;4882070;29;20101;-77
2022/05/01 06:19:04;;;;;;;1999.90;999.90;;;11.30;99.90;;;;;;4880204;29;20036;-77
2022/05/01 06:21:30;;;;;;;1999.90;999.90;;;11.40;99.90;;;;;;4881217;29;20112;-77
2022/05/01 06:23:55;;;;;;;1999.90;999.90;;;11.40;99.90;;;;;;4880950;29;20116;-77
2022/05/01 06:26:21;;;;;;;1999.90;999.90;;;11.50;99.90;;;;;;4880785;29;20033;-77
2022/05/01 06:28:47;;;;;;;1999.90;999.90;;;11.50;99.90;;;;;;4879776;29;20053;-77
2022/05/01 06:31:15;;;;;;;1999.90;999.90;;;11.40;99.90;;;;;;4880535;29;20028;-77
2022/05/01 06:33:41;;;;;;;1999.90;999.90;;;11.50;99.90;;;;;;4885205;29;20127;-76
2022/05/01 06:36:07;;;;;;;1999.90;999.90;;;11.60;99.90;;;;;;4880692;29;20563;-77
2022/05/01 06:38:33;;;;;;;1999.90;999.90;;;11.70;99.90;;;;;;4904057;29;20078;-77
2022/05/01 06:41:02;;;;;;;1999.90;999.90;;;11.70;99.90;;;;;;4917917;29;20084;-77
2022/05/01 06:43:27;;;;;;;1999.90;999.90;;;11.70;99.90;;;;;;4917859;29;20099;-77
2022/05/01 06:45:53;;;;;;;1999.90;999.90;;;11.80;99.90;;;;;;4918072;29;20531;-77
2022/05/01 06:48:19;;;;;;;1999.90;999.90;;;11.80;99.90;;;;;;4918068;29;20063;-77
2022/05/01 06:50:44;;;;;;;1999.90;999.90;;;11.90;99.90;;;;;;4921389;29;20091;-77
2022/05/01 06:53:10;;;;;;;1999.90;999.90;;;11.90;99.90;;;;;;4917823;29;20028;-77
2022/05/01 06:55:35;;;;;;;1999.90;999.90;;;12.00;99.90;;;;;;4889089;29;20031;-77
2022/05/01 06:58:01;;;;;;;1999.90;999.90;;;12.10;99.90;;;;;;4880004;29;20037;-77
2022/05/01 07:00:27;;;;;;;1999.90;999.90;;;12.10;99.90;;;;;;4880292;29;20029;-77
2022/05/01 07:02:54;;;;;;;1999.90;999.90;;;12.20;99.90;;;;;;4880035;29;20025;-77
2022/05/01 07:05:21;;;;;;;1999.90;999.90;;;12.30;99.90;;;;;;4878728;29;20021;-77
2022/05/01 07:07:49;;;;;;;1999.90;999.90;;;12.40;99.90;;;;;;4883317;29;20033;-77
2022/05/01 07:10:15;;;;;;;1999.90;999.90;;;12.50;99.90;;;;;;4880086;29;20064;-77
2022/05/01 07:12:41;;;;;;;1999.90;999.90;;;12.60;99.90;;;;;;4879163;29;20450;-77
2022/05/01 07:15:07;;;;;;;1999.90;999.90;;;12.70;99.90;;;;;;4880635;29;20037;-77
2022/05/01 07:17:33;;;;;;;1999.90;999.90;;;12.80;99.90;;;;;;4898378;29;20392;-77
2022/05/01 07:19:59;;;;;;;1999.90;999.90;;;12.80;99.90;;;;;;4881224;29;20115;-77
2022/05/01 07:22:26;;;;;;;1999.90;999.90;;;13.00;99.90;;;;;;4898888;29;20119;-77
2022/05/01 07:24:52;;;;;;;1999.90;999.90;;;13.20;99.90;;;;;;4898369;29;20385;-77
2022/05/01 07:27:17;;;;;;;1999.90;999.90;;;13.30;99.90;;;;;;4903382;29;20033;-77
2022/05/01 07:29:44;;;;;;;1999.90;999.90;;;13.50;99.90;;;;;;4898262;29;20032;-77
2022/05/01 07:32:09;;;;;;;1999.90;999.90;;;13.50;99.90;;;;;;4881668;29;20092;-77
2022/05/01 07:34:35;;;;;;;1999.90;999.90;;;13.60;99.90;;;;;;4898208;29;20024;-77
2022/05/01 07:37:01;;;;;;;1999.90;999.90;;;13.70;99.90;;;;;;4898269;29;20061;-77
2022/05/01 07:39:27;;;;;;;1999.90;999.90;;;13.80;99.90;;;;;;4897602;29;20024;-77
2022/05/01 07:41:52;;;;;;;1999.90;999.90;;;14.00;99.90;;;;;;4898484;29;20176;-77
2022/05/01 07:44:18;;;;;;;1999.90;999.90;;;14.20;99.90;;;;;;4900456;29;20032;-77
2022/05/01 07:46:44;;;;;;;1999.90;999.90;;;14.30;99.90;;;;;;4881249;29;20079;-77
2022/05/01 07:49:10;;;;;;;1999.90;999.90;;;14.60;99.90;;;;;;4898160;29;20556;-77
2022/05/01 07:51:36;;;;;;;1999.90;999.90;;;15.00;99.90;;;;;;4898257;29;20061;-77
2022/05/01 07:54:04;;;;;;;1999.90;999.90;;;15.20;99.90;;;;;;4889236;29;20546;-77
2022/05/01 07:56:31;;;;;;;1999.90;999.90;;;15.40;99.90;;;;;;4878118;29;20060;-77
2022/05/01 07:58:56;;;;;;;1999.90;999.90;;;15.60;99.90;;;;;;4879168;29;20592;-77
2022/05/01 08:01:22;;;;;;;1999.90;999.90;;;15.80;99.90;;;;;;4884132;29;20037;-77
2022/05/01 08:06:32;;;;;;;1999.90;999.90;;;16.60;99.30;;;;;;4878695;29;20071;-77
2022/05/01 08:08:58;;;;;;;1999.90;999.90;;;17.30;98.20;;;;;;4879167;29;20401;-77
2022/05/01 08:11:24;;;;;;;1999.90;999.90;;;17.30;97.50;;;;;;4879281;29;20021;-77
2022/05/01 08:13:50;;;;;;;1999.90;999.90;;;17.60;97.20;;;;;;4878361;29;20033;-77
2022/05/01 08:16:19;;;;;;;1999.90;999.90;;;17.70;96.90;;;;;;4877962;29;20041;-77
2022/05/01 08:21:31;;;;;;;1999.90;999.90;;;18.70;96.40;;;;;;4879470;29;20066;-78
2022/05/01 08:23:57;;;;;;;1999.90;999.90;;;19.40;94.80;;;;;;4882306;29;20527;-78
2022/05/01 08:26:23;;;;;;;1999.90;999.90;;;19.70;94.30;;;;;;4882764;29;20029;-78
2022/05/01 08:28:54;;;;;;;1999.90;999.90;;;20.10;93.70;;;;;;4882735;29;20029;-78
2022/05/01 08:31:21;;;;;;;1999.90;999.90;;;20.30;93.70;;;;;;4882367;29;20028;-78
2022/05/01 08:33:47;;;;;;;1999.90;999.90;;;20.10;93.60;;;;;;4883137;29;20040;-78
2022/05/01 08:36:13;;;;;;;1999.90;999.90;;;20.50;93.40;;;;;;4882824;29;20037;-78
2022/05/01 08:38:39;;;;;;;1999.90;999.90;;;20.30;94.20;;;;;;4907179;29;20035;-75
2022/05/01 08:41:06;;;;;;;1999.90;999.90;;;20.30;93.70;;;;;;4919980;29;20421;-75
2022/05/01 08:43:34;;;;;;;1999.90;999.90;;;20.20;93.80;;;;;;4903004;29;20032;-75
2022/05/01 08:46:36;;;;;;;1999.90;999.90;;;20.00;93.70;;;;;;4919788;29;20041;-75
2022/05/01 08:49:07;;;;;;;1999.90;999.90;;;20.00;94.30;;;;;;4920589;29;20099;-76
2022/05/01 08:51:41;;;;;;;1999.90;999.90;;;19.90;94.00;;;;;;4920076;29;20024;-75
2022/05/01 08:54:12;;;;;;;1999.90;999.90;;;19.80;93.90;;;;;;4907844;29;20432;-75
2022/05/01 08:56:40;;;;;;;1999.90;999.90;;;19.50;93.80;;;;;;4882363;29;20049;-75
2022/05/01 08:59:09;;;;;;;1999.90;999.90;;;19.70;94.20;;;;;;4882095;29;20039;-75
2022/05/01 09:01:36;;;;;;;1999.90;999.90;;;19.50;94.40;;;;;;4881004;29;20072;-75
2022/05/01 09:04:06;;;;;;;1999.90;999.90;;;19.30;94.40;;;;;;4881951;29;20021;-75
2022/05/01 09:06:33;;;;;;;1999.90;999.90;;;19.40;94.30;;;;;;4881291;29;20488;-75
2022/05/01 09:08:58;;;;;;;1999.90;999.90;;;19.60;93.70;;;;;;4881980;29;20021;-75
2022/05/01 09:14:13;;;;;;;1999.90;999.90;;;19.90;94.50;;;;;;4852854;29;20033;-75
2022/05/01 09:16:39;;;;;;;1999.90;999.90;;;20.10;93.50;;;;;;4882032;29;20044;-75
2022/05/01 09:19:05;;;;;;;1999.90;999.90;;;20.00;93.80;;;;;;4881306;29;20408;-75
2022/05/01 09:21:50;;;;;;;1999.90;999.90;;;20.20;93.90;;;;;;4881966;29;20057;-75
2022/05/01 09:24:28;;;;;;;1999.90;999.90;;;20.20;93.50;;;;;;4881344;29;20029;-75
2022/05/01 09:26:56;;;;;;;1999.90;999.90;;;20.20;93.70;;;;;;4881571;29;20039;-75
2022/05/01 09:29:23;;;;;;;1999.90;999.90;;;20.10;93.60;;;;;;4881337;29;20080;-75
2022/05/01 09:31:52;;;;;;;1999.90;999.90;;;19.90;93.50;;;;;;4881575;29;20029;-75
2022/05/01 09:34:23;;;;;;;1999.90;999.90;;;19.70;93.80;;;;;;4879725;29;20025;-75
2022/05/01 09:36:50;;;;;;;1999.90;999.90;;;19.90;93.50;;;;;;4881034;29;20400;-75
2022/05/01 09:39:24;;;;;;;1999.90;999.90;;;20.00;93.40;;;;;;4900557;29;20116;-75
2022/05/01 09:41:51;;;;;;;1999.90;999.90;;;20.10;93.70;;;;;;4918976;29;20048;-75
2022/05/01 09:44:19;;;;;;;1999.90;999.90;;;20.50;93.20;;;;;;4926935;29;20047;-74
2022/05/01 09:46:50;;;;;;;1999.90;999.90;;;20.60;92.70;;;;;;4925165;29;20499;-75
2022/05/01 09:49:17;;;;;;;1999.90;999.90;;;21.10;92.50;;;;;;4918768;29;20027;-76
2022/05/01 09:51:54;;;;;;;1999.90;999.90;;;21.60;91.70;;;;;;4918823;29;20021;-75
2022/05/01 09:54:22;;;;;;;1999.90;999.90;;;21.80;91.80;;;;;;4897135;29;20076;-76
2022/05/01 09:56:58;;;;;;;1999.90;999.90;;;22.20;91.40;;;;;;4881357;29;20029;-76
2022/05/01 09:59:26;;;;;;;1999.90;999.90;;;22.30;91.40;;;;;;4880720;29;20025;-75
2022/05/01 10:02:03;;;;;;;1999.90;999.90;;;22.40;91.30;;;;;;4881065;29;20039;-75
2022/05/01 10:04:34;;;;;;;1999.90;999.90;;;22.40;90.70;;;;;;4880541;29;20036;-75
2022/05/01 10:07:00;;;;;;;1999.90;999.90;;;22.10;90.60;;;;;;4880089;29;20401;-75
2022/05/01 10:09:28;;;;;;;1999.90;999.90;;;22.00;90.70;;;;;;4885153;29;20025;-75
2022/05/01 10:11:59;;;;;;;1999.90;999.90;;;22.20;91.00;;;;;;4881650;29;20036;-75
2022/05/01 10:14:26;;;;;;;1999.90;999.90;;;22.30;90.10;;;;;;4880533;29;20029;-75
2022/05/01 10:16:54;;;;;;;1999.90;999.90;;;22.60;90.00;;;;;;4880803;29;20028;-75
2022/05/01 10:19:23;;;;;;;1999.90;999.90;;;22.70;90.10;;;;;;4880353;29;20033;-75
2022/05/01 10:21:51;;;;;;;1999.90;999.90;;;22.50;90.10;;;;;;4879687;29;20032;-75
2022/05/01 10:24:18;;;;;;;1999.90;999.90;;;22.60;90.10;;;;;;4879578;29;20052;-75
2022/05/01 10:26:51;;;;;;;1999.90;999.90;;;22.40;90.20;;;;;;4880388;29;20029;-75
2022/05/01 10:29:38;;;;;;;1999.90;999.90;;;22.20;90.00;;;;;;4880495;29;20033;-75
2022/05/01 10:32:31;;;;;;;1999.90;999.90;;;22.40;87.90;;;;;;4885646;29;20032;-75
2022/05/01 10:35:04;;;;;;;;;;;22.70;88.70;;;;;;4878806;29;20025;-75
2022/05/01 10:38:02;;;;;;;1999.90;999.90;;;22.90;86.50;;;;;;4887359;29;19907;-75
2022/05/01 10:40:52;;;;;;;1999.90;999.90;;;23.00;87.00;;;;;;4917872;29;20032;-75
2022/05/01 10:43:36;;;;;;;1999.90;999.90;;;23.30;87.80;;;;;;4910908;29;20530;-75
2022/05/01 10:46:20;;;;;;;1999.90;999.90;;;23.80;87.10;;;;;;4900729;29;20491;-75
2022/05/01 10:48:46;;;;;;;1999.90;999.90;;;23.90;87.30;;;;;;4917914;29;20028;-75
2022/05/01 10:54:15;;;;;;;1999.90;999.90;;;23.70;84.00;;;;;;4901592;29;20125;-75
2022/05/01 10:56:51;;;;;;;1999.90;999.90;;;23.40;83.30;;;;;;4880349;29;20037;-75
2022/05/01 10:59:29;;;;;;;1999.90;999.90;;;23.60;84.90;;;;;;4880153;29;20029;-75
2022/05/01 11:01:56;;;;;;;1999.90;999.90;;;23.80;83.40;;;;;;4880157;29;20033;-75
2022/05/01 11:04:22;;;;;;;1999.90;999.90;;;23.90;83.70;;;;;;4879765;29;20060;-75
2022/05/01 11:06:53;;;;;;;1999.90;999.90;;;24.10;85.00;;;;;;4878654;29;20037;-75
2022/05/01 11:09:22;;;;;;;1999.90;999.90;;;24.40;80.80;;;;;;4889926;29;20025;-76
2022/05/01 11:11:56;;;;;;;1999.90;999.90;;;24.60;81.70;;;;;;4878556;29;20110;-75
2022/05/01 11:14:49;;;;;;;1999.90;999.90;;;24.80;77.50;;;;;;4880097;29;20626;-75
2022/05/01 11:17:47;;;;;;;1999.90;999.90;;;24.90;80.20;;;;;;4880037;29;20033;-75
2022/05/01 11:20:19;;;;;;;1999.90;999.90;;;25.10;80.30;;;;;;4879335;29;20037;-75
2022/05/01 11:22:47;;;;;;;1999.90;999.90;;;24.90;79.60;;;;;;4880036;29;20373;-76
2022/05/01 11:25:30;;;;;;;1999.90;999.90;;;25.40;78.50;;;;;;4879974;29;20428;-76
2022/05/01 11:27:56;;;;;;;1999.90;999.90;;;25.40;76.80;;;;;;4879761;29;20036;-75
2022/05/01 11:30:28;;;;;;;1999.90;999.90;;;24.90;75.50;;;;;;4878320;29;20041;-75
2022/05/01 11:33:02;;;;;;;1999.90;999.90;;;24.60;77.00;;;;;;4879566;29;20037;-76
2022/05/01 11:35:56;;;;;;;1999.90;999.90;;;24.90;76.80;;;;;;4883008;29;20041;-76
2022/05/01 11:38:38;;;;;;;1999.90;999.90;;;25.20;75.20;;;;;;4900002;29;20058;-76
2022/05/01 11:41:06;;;;;;;1999.90;999.90;;;24.80;76.50;;;;;;4916874;29;20472;-76
2022/05/01 11:43:35;;;;;;;1999.90;999.90;;;24.10;80.00;;;;;;4916461;29;20028;-76
2022/05/01 11:46:02;;;;;;;1999.90;999.90;;;23.60;78.80;;;;;;4917189;29;20032;-75
2022/05/01 11:48:29;;;;;;;1999.90;999.90;;;23.50;80.90;;;;;;4916787;29;20028;-75
2022/05/01 11:50:58;;;;;;;1999.90;999.90;;;23.50;80.40;;;;;;4916721;29;20020;-75
2022/05/01 11:53:29;;;;;;;1999.90;999.90;;;23.40;80.40;;;;;;4893322;29;20032;-75
2022/05/01 12:04:34;;;;;;;1999.90;999.90;;;23.00;80.60;;;;;;4879332;29;20043;-75
2022/05/01 12:07:18;;;;;;;1999.90;999.90;;;23.30;82.00;;;;;;4878958;29;20029;-75
2022/05/01 12:09:51;;;;;;;1999.90;999.90;;;23.20;80.80;;;;;;4878626;29;20022;-75
2022/05/01 12:12:19;;;;;;;1999.90;999.90;;;22.60;80.00;;;;;;4882008;29;20033;-75
2022/05/01 12:14:47;;;;;;;1999.90;999.90;;;22.60;79.00;;;;;;4879136;29;20032;-75
2022/05/01 12:17:18;;;;;;;1999.90;999.90;;;23.00;79.20;;;;;;4879024;29;20047;-76
2022/05/01 12:19:49;;;;;;;1999.90;999.90;;;23.70;82.60;;;;;;4878161;29;20025;-75
2022/05/01 12:22:20;;;;;;;1999.90;999.90;;;23.70;80.70;;;;;;4879310;29;20036;-75
2022/05/01 12:24:47;;;;;;;1999.90;999.90;;;23.90;81.50;;;;;;4878999;29;20057;-75
2022/05/01 12:27:16;;;;;;;1999.90;999.90;;;24.00;81.40;;;;;;4879225;29;20115;-75
2022/05/01 12:29:51;;;;;;;1999.90;999.90;;;24.10;80.30;;;;;;4883324;29;20029;-75
2022/05/01 12:32:17;;;;;;;1999.90;999.90;;;23.40;80.20;;;;;;4897653;29;20040;-75
2022/05/01 12:34:52;;;;;;;1999.90;999.90;;;22.90;81.50;;;;;;4897388;29;20021;-75
2022/05/01 12:37:20;;;;;;;1999.90;999.90;;;23.10;80.60;;;;;;4899695;29;20519;-76
2022/05/01 12:40:10;;;;;;;1999.90;999.90;;;23.10;79.10;;;;;;4916832;29;20024;-76